LFPM 100300Z AUTO 26006KT 9999 BKN020 OVC038 18/16 Q1014

Les locaux du Club
   
  L'Entrée du club Batiment 50  
   
  L'accueil et la zone opérations  
   
  La zone opérations  
   
  La zone Briefing  
   
  Le Club House  
   
  La parking avions et le hangard